sensor_id;sensor_type;location;lat;lon;timestamp;noise_LAeq;noise_LA_min;noise_LA_max;noise_LA01;noise_LA95
46746;Laerm;32493;50.514;9.678;2022-10-16T00:01:14;33.35;32.08;34.41;;
46746;Laerm;32493;50.514;9.678;2022-10-16T00:03:20;33.36;32.11;34.63;;
46746;Laerm;32493;50.514;9.678;2022-10-16T00:05:31;33.40;32.07;34.52;;
46746;Laerm;32493;50.514;9.678;2022-10-16T00:07:36;33.40;32.25;34.73;;
46746;Laerm;32493;50.514;9.678;2022-10-16T00:09:41;33.37;32.03;34.55;;
46746;Laerm;32493;50.514;9.678;2022-10-16T00:11:49;33.32;31.96;34.46;;
46746;Laerm;32493;50.514;9.678;2022-10-16T00:14:15;33.31;32.12;34.55;;
46746;Laerm;32493;50.514;9.678;2022-10-16T00:16:20;33.28;31.94;34.61;;
46746;Laerm;32493;50.514;9.678;2022-10-16T00:18:26;33.23;31.94;34.54;;
46746;Laerm;32493;50.514;9.678;2022-10-16T00:20:34;33.25;31.92;34.43;;
46746;Laerm;32493;50.514;9.678;2022-10-16T00:22:40;33.25;32.08;34.36;;
46746;Laerm;32493;50.514;9.678;2022-10-16T00:24:45;33.28;32.12;34.51;;
46746;Laerm;32493;50.514;9.678;2022-10-16T00:26:53;33.35;31.91;34.56;;
46746;Laerm;32493;50.514;9.678;2022-10-16T00:29:00;33.43;32.22;34.89;;
46746;Laerm;32493;50.514;9.678;2022-10-16T00:31:07;33.38;32.24;34.48;;
46746;Laerm;32493;50.514;9.678;2022-10-16T00:33:13;33.31;31.95;34.49;;
46746;Laerm;32493;50.514;9.678;2022-10-16T00:35:18;33.28;31.98;34.53;;
46746;Laerm;32493;50.514;9.678;2022-10-16T00:37:23;33.29;31.94;34.36;;
46746;Laerm;32493;50.514;9.678;2022-10-16T00:39:29;33.27;32.00;34.44;;
46746;Laerm;32493;50.514;9.678;2022-10-16T00:41:35;33.21;31.88;34.31;;
46746;Laerm;32493;50.514;9.678;2022-10-16T00:43:45;33.19;32.04;34.28;;
46746;Laerm;32493;50.514;9.678;2022-10-16T00:45:51;33.13;31.88;34.29;;
46746;Laerm;32493;50.514;9.678;2022-10-16T00:47:56;33.08;31.97;34.26;;
46746;Laerm;32493;50.514;9.678;2022-10-16T00:50:08;33.09;31.90;34.26;;
46746;Laerm;32493;50.514;9.678;2022-10-16T00:52:15;33.10;31.78;34.20;;
46746;Laerm;32493;50.514;9.678;2022-10-16T00:54:24;33.09;32.02;34.33;;
46746;Laerm;32493;50.514;9.678;2022-10-16T00:56:31;33.10;31.85;34.33;;
46746;Laerm;32493;50.514;9.678;2022-10-16T00:58:38;33.08;31.67;34.14;;
46746;Laerm;32493;50.514;9.678;2022-10-16T01:00:45;33.09;31.88;34.16;;
46746;Laerm;32493;50.514;9.678;2022-10-16T01:02:57;33.13;31.67;34.36;;
46746;Laerm;32493;50.514;9.678;2022-10-16T01:05:03;33.15;31.89;34.51;;
46746;Laerm;32493;50.514;9.678;2022-10-16T01:07:18;33.15;32.08;34.21;;
46746;Laerm;32493;50.514;9.678;2022-10-16T01:09:34;33.14;31.83;34.23;;
46746;Laerm;32493;50.514;9.678;2022-10-16T01:11:49;33.15;31.98;34.33;;
46746;Laerm;32493;50.514;9.678;2022-10-16T01:14:12;33.17;31.76;34.44;;
46746;Laerm;32493;50.514;9.678;2022-10-16T01:16:31;33.16;32.04;34.20;;
46746;Laerm;32493;50.514;9.678;2022-10-16T01:18:43;33.14;31.79;34.44;;
46746;Laerm;32493;50.514;9.678;2022-10-16T01:20:52;33.09;31.96;34.31;;
46746;Laerm;32493;50.514;9.678;2022-10-16T01:23:23;33.07;31.74;34.21;;
46746;Laerm;32493;50.514;9.678;2022-10-16T01:25:59;33.09;31.97;34.24;;
46746;Laerm;32493;50.514;9.678;2022-10-16T01:28:16;33.13;31.76;34.39;;
46746;Laerm;32493;50.514;9.678;2022-10-16T01:30:26;33.12;31.71;34.23;;
46746;Laerm;32493;50.514;9.678;2022-10-16T01:32:39;33.12;32.07;34.31;;
46746;Laerm;32493;50.514;9.678;2022-10-16T01:34:50;33.14;31.95;34.26;;
46746;Laerm;32493;50.514;9.678;2022-10-16T01:37:02;33.14;31.96;34.28;;
46746;Laerm;32493;50.514;9.678;2022-10-16T01:39:11;33.12;31.87;34.24;;
46746;Laerm;32493;50.514;9.678;2022-10-16T01:41:21;33.11;31.81;34.27;;
46746;Laerm;32493;50.514;9.678;2022-10-16T01:43:34;33.09;31.85;34.38;;
46746;Laerm;32493;50.514;9.678;2022-10-16T01:45:42;33.09;31.76;34.31;;
46746;Laerm;32493;50.514;9.678;2022-10-16T01:47:52;33.12;31.54;34.22;;
46746;Laerm;32493;50.514;9.678;2022-10-16T01:49:58;33.17;31.97;34.35;;
46746;Laerm;32493;50.514;9.678;2022-10-16T01:52:09;33.17;31.94;34.17;;
46746;Laerm;32493;50.514;9.678;2022-10-16T01:54:18;33.16;31.84;34.33;;
46746;Laerm;32493;50.514;9.678;2022-10-16T01:56:25;33.12;31.84;34.34;;
46746;Laerm;32493;50.514;9.678;2022-10-16T01:58:36;33.08;31.90;34.23;;
46746;Laerm;32493;50.514;9.678;2022-10-16T02:00:45;33.11;31.73;34.30;;
46746;Laerm;32493;50.514;9.678;2022-10-16T02:02:54;33.12;31.96;34.46;;
46746;Laerm;32493;50.514;9.678;2022-10-16T02:05:08;33.13;32.01;34.21;;
46746;Laerm;32493;50.514;9.678;2022-10-16T02:07:16;33.07;31.61;34.23;;
46746;Laerm;32493;50.514;9.678;2022-10-16T02:09:21;33.11;31.68;34.33;;
46746;Laerm;32493;50.514;9.678;2022-10-16T02:11:27;33.09;31.70;34.19;;
46746;Laerm;32493;50.514;9.678;2022-10-16T02:13:41;33.06;31.92;34.27;;
46746;Laerm;32493;50.514;9.678;2022-10-16T02:15:49;33.04;31.68;34.13;;
46746;Laerm;32493;50.514;9.678;2022-10-16T02:17:55;33.05;31.86;34.28;;
46746;Laerm;32493;50.514;9.678;2022-10-16T02:20:05;33.05;31.81;34.14;;
46746;Laerm;32493;50.514;9.678;2022-10-16T02:22:16;33.04;31.75;34.16;;
46746;Laerm;32493;50.514;9.678;2022-10-16T02:24:29;33.07;31.82;34.08;;
46746;Laerm;32493;50.514;9.678;2022-10-16T02:26:43;33.09;31.79;34.20;;
46746;Laerm;32493;50.514;9.678;2022-10-16T02:28:59;33.15;31.99;34.51;;
46746;Laerm;32493;50.514;9.678;2022-10-16T02:31:11;33.12;31.81;34.38;;
46746;Laerm;32493;50.514;9.678;2022-10-16T02:33:17;33.04;31.85;34.14;;
46746;Laerm;32493;50.514;9.678;2022-10-16T02:35:25;33.02;31.67;34.18;;
46746;Laerm;32493;50.514;9.678;2022-10-16T02:37:32;33.01;31.70;34.08;;
46746;Laerm;32493;50.514;9.678;2022-10-16T02:39:39;33.10;31.93;34.20;;
46746;Laerm;32493;50.514;9.678;2022-10-16T02:41:45;33.11;31.94;34.24;;
46746;Laerm;32493;50.514;9.678;2022-10-16T02:43:50;33.11;31.92;34.25;;
46746;Laerm;32493;50.514;9.678;2022-10-16T02:45:59;33.09;31.73;34.15;;
46746;Laerm;32493;50.514;9.678;2022-10-16T02:48:06;33.07;31.77;34.17;;
46746;Laerm;32493;50.514;9.678;2022-10-16T02:50:13;33.07;31.72;34.12;;
46746;Laerm;32493;50.514;9.678;2022-10-16T02:52:18;33.08;31.80;34.15;;
46746;Laerm;32493;50.514;9.678;2022-10-16T02:54:23;33.11;31.94;34.23;;
46746;Laerm;32493;50.514;9.678;2022-10-16T02:56:28;33.14;31.61;34.32;;
46746;Laerm;32493;50.514;9.678;2022-10-16T02:58:33;33.19;31.93;34.36;;
46746;Laerm;32493;50.514;9.678;2022-10-16T03:00:39;33.20;31.90;34.16;;
46746;Laerm;32493;50.514;9.678;2022-10-16T03:02:49;33.26;31.95;34.41;;
46746;Laerm;32493;50.514;9.678;2022-10-16T03:04:54;33.28;31.87;34.53;;
46746;Laerm;32493;50.514;9.678;2022-10-16T03:07:00;33.27;32.09;34.33;;
46746;Laerm;32493;50.514;9.678;2022-10-16T03:09:05;33.23;31.93;34.36;;
46746;Laerm;32493;50.514;9.678;2022-10-16T03:11:10;33.26;32.10;34.44;;
46746;Laerm;32493;50.514;9.678;2022-10-16T03:13:15;33.14;31.68;34.38;;
46746;Laerm;32493;50.514;9.678;2022-10-16T03:15:23;33.07;31.98;34.17;;
46746;Laerm;32493;50.514;9.678;2022-10-16T03:17:28;33.06;31.60;34.42;;
46746;Laerm;32493;50.514;9.678;2022-10-16T03:19:36;32.98;31.80;34.17;;
46746;Laerm;32493;50.514;9.678;2022-10-16T03:21:42;33.00;31.69;34.29;;
46746;Laerm;32493;50.514;9.678;2022-10-16T03:23:47;33.09;31.69;34.37;;
46746;Laerm;32493;50.514;9.678;2022-10-16T03:25:52;33.09;31.86;34.24;;
46746;Laerm;32493;50.514;9.678;2022-10-16T03:27:58;33.06;31.80;34.35;;
46746;Laerm;32493;50.514;9.678;2022-10-16T03:30:07;33.08;32.00;34.14;;
46746;Laerm;32493;50.514;9.678;2022-10-16T03:32:13;33.10;31.67;34.23;;
46746;Laerm;32493;50.514;9.678;2022-10-16T03:34:24;33.10;31.73;34.20;;
46746;Laerm;32493;50.514;9.678;2022-10-16T03:36:37;33.09;31.83;34.35;;
46746;Laerm;32493;50.514;9.678;2022-10-16T03:38:45;33.14;31.74;34.38;;
46746;Laerm;32493;50.514;9.678;2022-10-16T03:40:52;33.19;31.92;34.65;;
46746;Laerm;32493;50.514;9.678;2022-10-16T03:42:58;33.14;31.87;34.38;;
46746;Laerm;32493;50.514;9.678;2022-10-16T03:45:06;33.13;31.87;34.31;;
46746;Laerm;32493;50.514;9.678;2022-10-16T03:47:14;33.14;31.96;34.34;;
46746;Laerm;32493;50.514;9.678;2022-10-16T03:49:24;33.17;31.96;34.54;;
46746;Laerm;32493;50.514;9.678;2022-10-16T03:51:31;33.25;31.92;34.52;;
46746;Laerm;32493;50.514;9.678;2022-10-16T03:53:42;33.25;31.98;34.43;;
46746;Laerm;32493;50.514;9.678;2022-10-16T03:55:48;33.27;32.02;35.03;;
46746;Laerm;32493;50.514;9.678;2022-10-16T03:57:53;33.25;31.98;34.28;;
46746;Laerm;32493;50.514;9.678;2022-10-16T03:59:58;33.37;31.98;34.57;;
46746;Laerm;32493;50.514;9.678;2022-10-16T04:02:13;33.45;32.16;35.36;;
46746;Laerm;32493;50.514;9.678;2022-10-16T04:04:18;33.44;32.21;34.60;;
46746;Laerm;32493;50.514;9.678;2022-10-16T04:06:25;33.48;32.20;35.16;;
46746;Laerm;32493;50.514;9.678;2022-10-16T04:08:30;33.51;32.19;36.71;;
46746;Laerm;32493;50.514;9.678;2022-10-16T04:10:39;33.54;32.28;36.55;;
46746;Laerm;32493;50.514;9.678;2022-10-16T04:12:44;33.55;32.30;35.47;;
46746;Laerm;32493;50.514;9.678;2022-10-16T04:14:49;33.60;32.42;36.98;;
46746;Laerm;32493;50.514;9.678;2022-10-16T04:16:54;33.45;32.12;35.62;;
46746;Laerm;32493;50.514;9.678;2022-10-16T04:18:59;33.38;32.05;34.90;;
46746;Laerm;32493;50.514;9.678;2022-10-16T04:21:06;33.31;32.04;34.68;;
46746;Laerm;32493;50.514;9.678;2022-10-16T04:23:13;33.24;32.10;35.04;;
46746;Laerm;32493;50.514;9.678;2022-10-16T04:25:19;33.17;32.03;34.33;;
46746;Laerm;32493;50.514;9.678;2022-10-16T04:27:27;33.14;31.79;34.39;;
46746;Laerm;32493;50.514;9.678;2022-10-16T04:29:34;33.12;31.58;34.20;;
46746;Laerm;32493;50.514;9.678;2022-10-16T04:31:39;33.09;31.74;34.19;;
46746;Laerm;32493;50.514;9.678;2022-10-16T04:33:44;33.06;31.63;34.33;;
46746;Laerm;32493;50.514;9.678;2022-10-16T04:35:56;33.05;31.86;34.21;;
46746;Laerm;32493;50.514;9.678;2022-10-16T04:38:02;33.05;31.54;34.28;;
46746;Laerm;32493;50.514;9.678;2022-10-16T04:40:08;33.07;31.92;34.25;;
46746;Laerm;32493;50.514;9.678;2022-10-16T04:42:14;33.10;31.90;34.39;;
46746;Laerm;32493;50.514;9.678;2022-10-16T04:44:21;33.09;31.79;34.24;;
46746;Laerm;32493;50.514;9.678;2022-10-16T04:46:27;33.09;31.85;34.31;;
46746;Laerm;32493;50.514;9.678;2022-10-16T04:48:32;33.10;31.74;34.18;;
46746;Laerm;32493;50.514;9.678;2022-10-16T04:50:37;33.13;31.84;34.19;;
46746;Laerm;32493;50.514;9.678;2022-10-16T04:52:43;33.13;31.85;34.32;;
46746;Laerm;32493;50.514;9.678;2022-10-16T04:54:48;33.11;31.77;34.33;;
46746;Laerm;32493;50.514;9.678;2022-10-16T04:56:53;33.11;31.89;34.36;;
46746;Laerm;32493;50.514;9.678;2022-10-16T04:58:59;33.13;31.94;34.22;;
46746;Laerm;32493;50.514;9.678;2022-10-16T05:01:07;33.14;31.74;34.11;;
46746;Laerm;32493;50.514;9.678;2022-10-16T05:03:13;33.13;31.99;34.27;;
46746;Laerm;32493;50.514;9.678;2022-10-16T05:05:19;33.15;31.75;34.20;;
46746;Laerm;32493;50.514;9.678;2022-10-16T05:07:25;33.19;31.90;34.32;;
46746;Laerm;32493;50.514;9.678;2022-10-16T05:09:31;33.19;31.97;34.43;;
46746;Laerm;32493;50.514;9.678;2022-10-16T05:11:36;33.19;31.94;34.36;;
46746;Laerm;32493;50.514;9.678;2022-10-16T05:13:41;33.20;31.91;34.50;;
46746;Laerm;32493;50.514;9.678;2022-10-16T05:15:47;33.21;31.85;34.41;;
46746;Laerm;32493;50.514;9.678;2022-10-16T05:17:56;33.25;32.05;34.48;;
46746;Laerm;32493;50.514;9.678;2022-10-16T05:20:01;33.20;32.03;34.36;;
46746;Laerm;32493;50.514;9.678;2022-10-16T05:22:07;33.23;32.01;34.51;;
46746;Laerm;32493;50.514;9.678;2022-10-16T05:24:12;33.29;32.09;34.57;;
46746;Laerm;32493;50.514;9.678;2022-10-16T05:26:18;33.24;32.00;34.63;;
46746;Laerm;32493;50.514;9.678;2022-10-16T05:28:23;33.22;31.92;34.56;;
46746;Laerm;32493;50.514;9.678;2022-10-16T05:30:28;33.11;31.94;34.18;;
46746;Laerm;32493;50.514;9.678;2022-10-16T05:32:33;33.06;31.75;34.19;;
46746;Laerm;32493;50.514;9.678;2022-10-16T05:34:42;33.07;31.88;34.21;;
46746;Laerm;32493;50.514;9.678;2022-10-16T05:36:47;33.07;31.76;34.16;;
46746;Laerm;32493;50.514;9.678;2022-10-16T05:38:53;33.10;32.01;34.31;;
46746;Laerm;32493;50.514;9.678;2022-10-16T05:40:58;33.12;31.89;34.18;;
46746;Laerm;32493;50.514;9.678;2022-10-16T05:43:03;33.10;31.75;34.18;;
46746;Laerm;32493;50.514;9.678;2022-10-16T05:45:10;33.08;31.89;34.50;;
46746;Laerm;32493;50.514;9.678;2022-10-16T05:47:16;33.12;31.43;34.59;;
46746;Laerm;32493;50.514;9.678;2022-10-16T05:49:23;33.26;31.90;34.49;;
46746;Laerm;32493;50.514;9.678;2022-10-16T05:51:31;33.32;32.12;34.62;;
46746;Laerm;32493;50.514;9.678;2022-10-16T05:53:41;33.36;32.11;34.48;;
46746;Laerm;32493;50.514;9.678;2022-10-16T05:55:52;33.28;31.90;34.45;;
46746;Laerm;32493;50.514;9.678;2022-10-16T05:58:01;33.37;32.17;35.80;;
46746;Laerm;32493;50.514;9.678;2022-10-16T06:00:09;33.38;32.11;34.66;;
46746;Laerm;32493;50.514;9.678;2022-10-16T06:02:15;33.34;32.05;34.60;;
46746;Laerm;32493;50.514;9.678;2022-10-16T06:04:20;33.32;31.98;34.52;;
46746;Laerm;32493;50.514;9.678;2022-10-16T06:06:30;33.32;31.93;34.76;;
46746;Laerm;32493;50.514;9.678;2022-10-16T06:08:35;33.33;32.18;35.15;;
46746;Laerm;32493;50.514;9.678;2022-10-16T06:10:41;33.34;31.94;35.14;;
46746;Laerm;32493;50.514;9.678;2022-10-16T06:12:46;33.29;32.21;34.70;;
46746;Laerm;32493;50.514;9.678;2022-10-16T06:14:52;33.28;31.71;34.65;;
46746;Laerm;32493;50.514;9.678;2022-10-16T06:16:57;33.29;32.16;34.70;;
46746;Laerm;32493;50.514;9.678;2022-10-16T06:19:03;33.23;31.84;34.42;;
46746;Laerm;32493;50.514;9.678;2022-10-16T06:21:14;33.19;31.95;34.77;;
46746;Laerm;32493;50.514;9.678;2022-10-16T06:23:27;33.19;31.94;34.43;;
46746;Laerm;32493;50.514;9.678;2022-10-16T06:25:33;33.16;31.72;34.51;;
46746;Laerm;32493;50.514;9.678;2022-10-16T06:27:40;33.12;31.64;34.42;;
46746;Laerm;32493;50.514;9.678;2022-10-16T06:29:59;33.14;31.78;34.49;;
46746;Laerm;32493;50.514;9.678;2022-10-16T06:32:05;33.07;31.96;34.34;;
46746;Laerm;32493;50.514;9.678;2022-10-16T06:34:12;33.11;31.66;34.32;;
46746;Laerm;32493;50.514;9.678;2022-10-16T06:36:20;33.15;31.86;34.33;;
46746;Laerm;32493;50.514;9.678;2022-10-16T06:38:30;33.14;31.84;34.25;;
46746;Laerm;32493;50.514;9.678;2022-10-16T06:40:36;33.13;32.05;34.29;;
46746;Laerm;32493;50.514;9.678;2022-10-16T06:42:42;33.14;31.87;34.35;;
46746;Laerm;32493;50.514;9.678;2022-10-16T06:44:50;33.12;31.81;34.40;;
46746;Laerm;32493;50.514;9.678;2022-10-16T06:46:56;33.11;31.87;34.28;;
46746;Laerm;32493;50.514;9.678;2022-10-16T06:49:03;33.10;31.83;34.23;;
46746;Laerm;32493;50.514;9.678;2022-10-16T06:51:15;33.13;31.60;34.24;;
46746;Laerm;32493;50.514;9.678;2022-10-16T06:53:24;33.14;31.93;34.45;;
46746;Laerm;32493;50.514;9.678;2022-10-16T06:55:48;33.17;31.71;34.26;;
46746;Laerm;32493;50.514;9.678;2022-10-16T06:57:57;33.16;31.93;34.36;;
46746;Laerm;32493;50.514;9.678;2022-10-16T07:00:05;33.21;31.98;34.35;;
46746;Laerm;32493;50.514;9.678;2022-10-16T07:02:14;33.25;31.97;34.49;;
46746;Laerm;32493;50.514;9.678;2022-10-16T07:04:21;33.25;32.00;34.27;;
46746;Laerm;32493;50.514;9.678;2022-10-16T07:06:31;33.29;32.03;34.53;;
46746;Laerm;32493;50.514;9.678;2022-10-16T07:08:39;33.38;31.90;34.79;;
46746;Laerm;32493;50.514;9.678;2022-10-16T07:10:48;33.48;32.33;34.91;;
46746;Laerm;32493;50.514;9.678;2022-10-16T07:12:53;33.52;32.32;34.82;;
46746;Laerm;32493;50.514;9.678;2022-10-16T07:14:58;33.51;32.30;35.49;;
46746;Laerm;32493;50.514;9.678;2022-10-16T07:17:04;33.45;32.31;36.19;;
46746;Laerm;32493;50.514;9.678;2022-10-16T07:19:10;33.41;31.93;34.71;;
46746;Laerm;32493;50.514;9.678;2022-10-16T07:21:19;33.45;32.23;34.60;;
46746;Laerm;32493;50.514;9.678;2022-10-16T07:23:25;33.57;32.22;37.32;;
46746;Laerm;32493;50.514;9.678;2022-10-16T07:25:30;33.91;32.26;37.01;;
46746;Laerm;32493;50.514;9.678;2022-10-16T07:27:38;34.25;32.72;40.95;;
46746;Laerm;32493;50.514;9.678;2022-10-16T07:29:43;34.10;32.79;36.77;;
46746;Laerm;32493;50.514;9.678;2022-10-16T07:31:49;34.24;32.74;41.53;;
46746;Laerm;32493;50.514;9.678;2022-10-16T07:33:55;34.37;32.85;37.83;;
46746;Laerm;32493;50.514;9.678;2022-10-16T07:36:00;34.62;33.22;39.85;;
46746;Laerm;32493;50.514;9.678;2022-10-16T07:38:05;35.06;33.40;41.61;;
46746;Laerm;32493;50.514;9.678;2022-10-16T07:40:12;34.75;33.04;38.80;;
46746;Laerm;32493;50.514;9.678;2022-10-16T07:42:17;34.51;33.15;40.11;;
46746;Laerm;32493;50.514;9.678;2022-10-16T07:44:25;34.72;33.18;42.24;;
46746;Laerm;32493;50.514;9.678;2022-10-16T07:46:31;34.57;32.96;40.66;;
46746;Laerm;32493;50.514;9.678;2022-10-16T07:48:38;34.78;33.24;41.29;;
46746;Laerm;32493;50.514;9.678;2022-10-16T07:50:43;35.80;33.20;43.51;;
46746;Laerm;32493;50.514;9.678;2022-10-16T07:52:49;35.81;33.59;42.96;;
46746;Laerm;32493;50.514;9.678;2022-10-16T07:54:54;34.66;33.33;37.94;;
46746;Laerm;32493;50.514;9.678;2022-10-16T07:56:59;34.68;33.42;38.49;;
46746;Laerm;32493;50.514;9.678;2022-10-16T07:59:05;34.60;32.97;38.11;;
46746;Laerm;32493;50.514;9.678;2022-10-16T08:01:15;34.49;33.23;35.92;;
46746;Laerm;32493;50.514;9.678;2022-10-16T08:03:20;34.32;33.04;35.94;;
46746;Laerm;32493;50.514;9.678;2022-10-16T08:05:25;34.57;33.22;37.02;;
46746;Laerm;32493;50.514;9.678;2022-10-16T08:07:31;34.59;33.18;38.00;;
46746;Laerm;32493;50.514;9.678;2022-10-16T08:09:36;34.64;33.38;38.66;;
46746;Laerm;32493;50.514;9.678;2022-10-16T08:11:45;34.71;33.41;38.25;;
46746;Laerm;32493;50.514;9.678;2022-10-16T08:13:54;34.60;33.23;37.20;;
46746;Laerm;32493;50.514;9.678;2022-10-16T08:16:06;34.67;33.15;38.16;;
46746;Laerm;32493;50.514;9.678;2022-10-16T08:18:18;34.74;33.53;36.00;;
46746;Laerm;32493;50.514;9.678;2022-10-16T08:20:33;34.88;33.57;36.30;;
46746;Laerm;32493;50.514;9.678;2022-10-16T08:22:39;34.94;33.72;37.77;;
46746;Laerm;32493;50.514;9.678;2022-10-16T08:24:44;34.87;33.71;37.89;;
46746;Laerm;32493;50.514;9.678;2022-10-16T08:26:49;34.66;33.38;35.96;;
46746;Laerm;32493;50.514;9.678;2022-10-16T08:28:57;34.60;33.50;36.07;;
46746;Laerm;32493;50.514;9.678;2022-10-16T08:31:08;34.55;33.25;36.50;;
46746;Laerm;32493;50.514;9.678;2022-10-16T08:33:16;34.54;33.35;35.83;;
46746;Laerm;32493;50.514;9.678;2022-10-16T08:35:20;34.58;33.39;35.91;;
46746;Laerm;32493;50.514;9.678;2022-10-16T08:37:30;34.43;33.16;37.03;;
46746;Laerm;32493;50.514;9.678;2022-10-16T08:39:35;34.28;33.01;36.01;;
46746;Laerm;32493;50.514;9.678;2022-10-16T08:42:08;34.38;33.07;35.95;;
46746;Laerm;32493;50.514;9.678;2022-10-16T08:45:02;34.53;33.13;35.84;;
46746;Laerm;32493;50.514;9.678;2022-10-16T08:47:19;34.62;33.46;36.11;;
46746;Laerm;32493;50.514;9.678;2022-10-16T08:49:30;34.69;33.35;36.02;;
46746;Laerm;32493;50.514;9.678;2022-10-16T08:51:37;34.78;33.50;38.38;;
46746;Laerm;32493;50.514;9.678;2022-10-16T08:53:49;34.84;33.70;36.37;;
46746;Laerm;32493;50.514;9.678;2022-10-16T08:55:57;34.82;33.40;36.64;;
46746;Laerm;32493;50.514;9.678;2022-10-16T08:58:12;34.65;33.34;35.85;;
46746;Laerm;32493;50.514;9.678;2022-10-16T09:00:18;34.52;33.21;36.06;;
46746;Laerm;32493;50.514;9.678;2022-10-16T09:02:31;34.55;33.29;35.98;;
46746;Laerm;32493;50.514;9.678;2022-10-16T09:05:22;34.75;33.48;36.03;;
46746;Laerm;32493;50.514;9.678;2022-10-16T09:07:35;34.91;33.53;37.03;;
46746;Laerm;32493;50.514;9.678;2022-10-16T09:10:02;35.09;33.86;36.58;;
46746;Laerm;32493;50.514;9.678;2022-10-16T09:12:17;35.19;33.92;37.36;;
46746;Laerm;32493;50.514;9.678;2022-10-16T09:14:50;35.22;33.84;36.69;;
46746;Laerm;32493;50.514;9.678;2022-10-16T09:17:01;35.23;33.82;37.66;;
46746;Laerm;32493;50.514;9.678;2022-10-16T09:19:33;35.25;33.72;37.43;;
46746;Laerm;32493;50.514;9.678;2022-10-16T09:21:45;35.26;34.00;36.71;;
46746;Laerm;32493;50.514;9.678;2022-10-16T09:23:51;35.33;33.93;36.88;;
46746;Laerm;32493;50.514;9.678;2022-10-16T09:25:58;35.17;33.75;36.93;;
46746;Laerm;32493;50.514;9.678;2022-10-16T09:28:08;35.16;34.00;37.36;;
46746;Laerm;32493;50.514;9.678;2022-10-16T09:30:19;35.26;33.77;36.99;;
46746;Laerm;32493;50.514;9.678;2022-10-16T09:32:25;35.30;34.05;37.05;;
46746;Laerm;32493;50.514;9.678;2022-10-16T09:34:33;35.19;33.80;36.44;;
46746;Laerm;32493;50.514;9.678;2022-10-16T09:36:45;35.23;33.85;37.17;;
46746;Laerm;32493;50.514;9.678;2022-10-16T09:39:03;35.28;33.90;37.40;;
46746;Laerm;32493;50.514;9.678;2022-10-16T09:41:17;35.12;33.80;36.52;;
46746;Laerm;32493;50.514;9.678;2022-10-16T09:43:26;34.88;33.62;36.17;;
46746;Laerm;32493;50.514;9.678;2022-10-16T09:45:33;34.73;33.51;35.83;;
46746;Laerm;32493;50.514;9.678;2022-10-16T09:47:41;34.77;33.26;36.43;;
46746;Laerm;32493;50.514;9.678;2022-10-16T09:49:55;35.13;33.58;36.60;;
46746;Laerm;32493;50.514;9.678;2022-10-16T09:52:12;35.28;33.98;38.07;;
46746;Laerm;32493;50.514;9.678;2022-10-16T09:54:20;35.35;34.05;36.72;;
46746;Laerm;32493;50.514;9.678;2022-10-16T09:56:28;35.24;33.88;36.64;;
46746;Laerm;32493;50.514;9.678;2022-10-16T09:58:34;35.09;33.44;37.25;;
46746;Laerm;32493;50.514;9.678;2022-10-16T10:00:41;34.62;33.40;36.07;;
46746;Laerm;32493;50.514;9.678;2022-10-16T10:02:54;34.39;33.26;37.79;;
46746;Laerm;32493;50.514;9.678;2022-10-16T10:05:00;34.12;32.89;35.62;;
46746;Laerm;32493;50.514;9.678;2022-10-16T10:07:18;33.83;32.53;35.05;;
46746;Laerm;32493;50.514;9.678;2022-10-16T10:09:27;33.70;32.44;34.93;;
46746;Laerm;32493;50.514;9.678;2022-10-16T10:11:53;33.70;32.47;34.92;;
46746;Laerm;32493;50.514;9.678;2022-10-16T10:14:05;33.80;32.39;35.01;;
46746;Laerm;32493;50.514;9.678;2022-10-16T10:16:10;33.83;32.61;35.17;;
46746;Laerm;32493;50.514;9.678;2022-10-16T10:18:18;33.90;32.59;35.17;;
46746;Laerm;32493;50.514;9.678;2022-10-16T10:20:27;33.87;32.13;35.00;;
46746;Laerm;32493;50.514;9.678;2022-10-16T10:22:41;33.86;32.38;35.00;;
46746;Laerm;32493;50.514;9.678;2022-10-16T10:25:15;33.87;32.59;35.06;;
46746;Laerm;32493;50.514;9.678;2022-10-16T10:27:35;33.62;32.35;34.90;;
46746;Laerm;32493;50.514;9.678;2022-10-16T10:29:51;33.62;32.11;34.75;;
46746;Laerm;32493;50.514;9.678;2022-10-16T10:32:14;33.62;32.38;34.89;;
46746;Laerm;32493;50.514;9.678;2022-10-16T10:34:37;33.54;32.16;34.72;;
46746;Laerm;32493;50.514;9.678;2022-10-16T10:36:53;33.54;32.41;34.70;;
46746;Laerm;32493;50.514;9.678;2022-10-16T10:39:08;33.71;32.16;34.86;;
46746;Laerm;32493;50.514;9.678;2022-10-16T10:42:01;33.73;32.42;34.91;;
46746;Laerm;32493;50.514;9.678;2022-10-16T10:44:19;33.83;32.62;35.23;;
46746;Laerm;32493;50.514;9.678;2022-10-16T10:46:35;34.09;32.87;35.21;;
46746;Laerm;32493;50.514;9.678;2022-10-16T10:49:02;34.15;32.79;35.48;;
46746;Laerm;32493;50.514;9.678;2022-10-16T10:51:16;33.98;32.79;35.19;;
46746;Laerm;32493;50.514;9.678;2022-10-16T10:53:36;33.88;32.57;35.00;;
46746;Laerm;32493;50.514;9.678;2022-10-16T10:55:52;33.90;32.81;35.12;;
46746;Laerm;32493;50.514;9.678;2022-10-16T10:58:37;33.86;32.63;35.08;;
46746;Laerm;32493;50.514;9.678;2022-10-16T11:00:56;33.79;32.58;35.14;;
46746;Laerm;32493;50.514;9.678;2022-10-16T11:03:13;33.89;32.49;35.06;;
46746;Laerm;32493;50.514;9.678;2022-10-16T11:05:41;34.01;32.70;35.22;;
46746;Laerm;32493;50.514;9.678;2022-10-16T11:07:51;34.13;32.80;35.46;;
46746;Laerm;32493;50.514;9.678;2022-10-16T11:10:02;34.47;33.31;36.59;;
46746;Laerm;32493;50.514;9.678;2022-10-16T11:12:15;34.19;33.02;35.35;;
46746;Laerm;32493;50.514;9.678;2022-10-16T11:14:29;34.14;32.84;35.50;;
46746;Laerm;32493;50.514;9.678;2022-10-16T11:16:39;34.09;32.89;35.89;;
46746;Laerm;32493;50.514;9.678;2022-10-16T11:18:54;33.83;32.65;34.90;;
46746;Laerm;32493;50.514;9.678;2022-10-16T11:21:08;33.73;32.57;34.87;;
46746;Laerm;32493;50.514;9.678;2022-10-16T11:23:23;33.76;32.45;35.03;;
46746;Laerm;32493;50.514;9.678;2022-10-16T11:25:33;33.80;32.40;34.96;;
46746;Laerm;32493;50.514;9.678;2022-10-16T11:27:44;33.80;32.37;35.02;;
46746;Laerm;32493;50.514;9.678;2022-10-16T11:29:58;33.82;32.67;35.02;;
46746;Laerm;32493;50.514;9.678;2022-10-16T11:32:18;33.82;32.59;35.06;;
46746;Laerm;32493;50.514;9.678;2022-10-16T11:34:31;33.88;32.53;34.99;;
46746;Laerm;32493;50.514;9.678;2022-10-16T11:36:43;34.06;32.63;35.98;;
46746;Laerm;32493;50.514;9.678;2022-10-16T11:38:57;34.66;33.40;37.15;;
46746;Laerm;32493;50.514;9.678;2022-10-16T11:41:19;35.43;33.76;39.57;;
46746;Laerm;32493;50.514;9.678;2022-10-16T11:43:38;35.74;33.92;39.22;;
46746;Laerm;32493;50.514;9.678;2022-10-16T11:45:49;35.94;34.36;39.73;;
46746;Laerm;32493;50.514;9.678;2022-10-16T11:48:01;35.96;34.34;39.21;;
46746;Laerm;32493;50.514;9.678;2022-10-16T11:50:26;36.05;34.69;38.16;;
46746;Laerm;32493;50.514;9.678;2022-10-16T11:52:42;36.15;34.63;39.74;;
46746;Laerm;32493;50.514;9.678;2022-10-16T11:54:59;36.25;34.31;40.25;;
46746;Laerm;32493;50.514;9.678;2022-10-16T11:57:14;36.38;33.73;39.63;;
46746;Laerm;32493;50.514;9.678;2022-10-16T11:59:30;36.57;34.84;40.82;;
46746;Laerm;32493;50.514;9.678;2022-10-16T12:01:41;36.53;34.74;40.57;;
46746;Laerm;32493;50.514;9.678;2022-10-16T12:04:07;36.59;34.98;39.81;;
46746;Laerm;32493;50.514;9.678;2022-10-16T12:06:30;36.78;35.05;41.43;;
46746;Laerm;32493;50.514;9.678;2022-10-16T12:08:37;36.89;35.17;42.85;;